createdAt,value
2018-12-31T00:00:32.092Z,24.3
2018-12-31T00:01:32.633Z,21.3
2018-12-31T00:02:33.432Z,21.3
2018-12-31T00:03:31.901Z,24.3
2018-12-31T00:04:32.417Z,18.3
2018-12-31T00:05:32.096Z,27.3
2018-12-31T00:06:32.547Z,24.3
2018-12-31T00:07:32.382Z,21.3
2018-12-31T00:08:32.439Z,30.3
2018-12-31T00:09:32.327Z,21.3
2018-12-31T00:10:32.109Z,24.3
2018-12-31T00:12:36.956Z,21.3
2018-12-31T00:13:36.621Z,21.3
2018-12-31T00:14:36.346Z,24.3
2018-12-31T00:15:36.786Z,15.4
2018-12-31T00:16:36.427Z,21.3
2018-12-31T00:17:36.633Z,21.3
2018-12-31T00:18:38.105Z,18.3
2018-12-31T00:19:36.406Z,24.3
2018-12-31T00:20:36.735Z,18.3
2018-12-31T00:21:36.535Z,21.3
2018-12-31T00:22:36.572Z,24.3
2018-12-31T00:23:39.607Z,18.3
2018-12-31T00:24:36.732Z,24.3
2018-12-31T00:25:37.099Z,27.3
2018-12-31T00:26:35.999Z,24.3
2018-12-31T00:27:36.136Z,24.3
2018-12-31T00:28:36.050Z,24.3
2018-12-31T00:29:36.049Z,27.3
2018-12-31T00:30:36.117Z,24.3
2018-12-31T00:31:36.068Z,21.3
2018-12-31T00:32:36.008Z,24.3
2018-12-31T00:33:36.102Z,24.3
2018-12-31T00:34:36.082Z,27.3
2018-12-31T00:35:36.152Z,24.3
2018-12-31T00:36:36.069Z,21.3
2018-12-31T00:37:36.130Z,27.3
2018-12-31T00:38:36.092Z,27.3
2018-12-31T00:39:36.080Z,24.3
2018-12-31T00:40:36.156Z,15.4
2018-12-31T00:41:36.070Z,21.3
2018-12-31T00:42:45.980Z,18.3
2018-12-31T00:43:36.047Z,21.3
2018-12-31T00:44:36.066Z,15.4
2018-12-31T00:45:36.065Z,9.5
2018-12-31T00:46:36.169Z,12.4
2018-12-31T00:47:36.095Z,6.6
2018-12-31T00:48:36.040Z,12.4
2018-12-31T00:49:36.068Z,9.5
2018-12-31T00:50:36.057Z,9.5
2018-12-31T00:51:36.178Z,12.4
2018-12-31T00:52:36.049Z,12.4
2018-12-31T00:53:36.031Z,9.5
2018-12-31T00:54:36.058Z,9.5
2018-12-31T00:55:36.228Z,12.4
2018-12-31T00:56:36.129Z,15.4
2018-12-31T00:57:36.036Z,12.4
2018-12-31T00:58:36.070Z,9.5
2018-12-31T00:59:36.083Z,12.4
2018-12-31T01:00:36.089Z,15.4
2018-12-31T01:01:36.182Z,12.4
2018-12-31T01:02:36.146Z,9.5
2018-12-31T01:03:36.086Z,9.5
2018-12-31T01:04:36.052Z,15.4
2018-12-31T01:05:36.051Z,15.4
2018-12-31T01:06:36.205Z,15.4
2018-12-31T01:07:36.118Z,3.9
2018-12-31T01:08:36.100Z,21.3
2018-12-31T01:09:36.041Z,21.3
2018-12-31T01:10:36.053Z,15.4
2018-12-31T01:11:36.024Z,15.4
2018-12-31T01:12:36.014Z,15.4
2018-12-31T01:13:36.127Z,21.3
2018-12-31T01:14:36.030Z,24.3
2018-12-31T01:15:36.102Z,18.3
2018-12-31T01:16:36.025Z,12.4
2018-12-31T01:17:37.626Z,18.3
2018-12-31T01:18:36.080Z,15.4
2018-12-31T01:19:36.499Z,15.4
2018-12-31T01:20:36.062Z,9.5
2018-12-31T01:21:36.013Z,12.4
2018-12-31T01:22:36.122Z,12.4
2018-12-31T01:23:36.044Z,12.4
2018-12-31T01:24:36.075Z,24.3
2018-12-31T01:25:36.081Z,30.3
2018-12-31T01:26:36.004Z,30.3
2018-12-31T01:27:36.047Z,18.3
2018-12-31T01:28:36.084Z,18.3
2018-12-31T01:29:36.157Z,21.3
2018-12-31T01:30:36.017Z,12.4
2018-12-31T01:31:36.000Z,9.5
2018-12-31T01:32:35.999Z,15.4
2018-12-31T01:33:36.008Z,15.4
2018-12-31T01:34:36.060Z,12.4
2018-12-31T01:35:36.047Z,12.4
2018-12-31T01:36:38.244Z,18.3
2018-12-31T01:37:36.009Z,30.3
2018-12-31T01:38:37.385Z,15.4
2018-12-31T01:39:36.378Z,15.4
2018-12-31T01:40:36.188Z,15.4
2018-12-31T01:41:36.073Z,21.3
2018-12-31T01:42:36.054Z,15.4
2018-12-31T01:43:36.293Z,18.3
2018-12-31T01:44:36.048Z,15.4
2018-12-31T01:45:36.039Z,15.4
2018-12-31T01:46:36.117Z,18.3
2018-12-31T01:47:36.018Z,12.4
2018-12-31T01:48:36.010Z,24.3
2018-12-31T01:49:36.262Z,18.3
2018-12-31T01:50:36.030Z,21.3
2018-12-31T01:51:36.061Z,12.4
2018-12-31T01:52:36.015Z,6.6
2018-12-31T01:53:36.009Z,9.5
2018-12-31T01:54:35.982Z,15.4
2018-12-31T01:55:36.095Z,15.4
2018-12-31T01:56:36.033Z,9.5
2018-12-31T01:57:36.012Z,9.5
2018-12-31T01:58:36.068Z,9.5
2018-12-31T01:59:36.072Z,15.4
2018-12-31T02:00:36.889Z,9.5
2018-12-31T02:01:36.045Z,6.6
2018-12-31T02:02:36.022Z,12.4
2018-12-31T02:03:36.094Z,6.6
2018-12-31T02:04:35.985Z,15.4
2018-12-31T02:05:36.029Z,15.4
2018-12-31T02:06:36.017Z,15.4
2018-12-31T02:07:36.071Z,18.3
2018-12-31T02:08:36.007Z,9.5
2018-12-31T02:09:37.563Z,12.4
2018-12-31T02:10:35.983Z,15.4
2018-12-31T02:11:38.087Z,9.5
2018-12-31T02:12:36.102Z,12.4
2018-12-31T02:13:36.026Z,6.6
2018-12-31T02:14:36.138Z,9.5
2018-12-31T02:15:36.029Z,12.4
2018-12-31T02:16:35.997Z,9.5
2018-12-31T02:17:36.038Z,9.5
2018-12-31T02:18:36.074Z,18.3
2018-12-31T02:19:36.029Z,12.4
2018-12-31T02:20:36.029Z,15.4
2018-12-31T02:21:35.975Z,15.4
2018-12-31T02:22:36.081Z,18.3
2018-12-31T02:23:36.094Z,12.4
2018-12-31T02:24:36.002Z,15.4
2018-12-31T02:25:35.997Z,12.4
2018-12-31T02:26:36.019Z,9.5
2018-12-31T02:27:36.041Z,12.4
2018-12-31T02:28:36.073Z,15.4
2018-12-31T02:29:36.010Z,21.3
2018-12-31T02:30:35.997Z,15.4
2018-12-31T02:31:36.097Z,15.4
2018-12-31T02:32:36.011Z,15.4
2018-12-31T02:33:35.998Z,24.3
2018-12-31T02:34:35.999Z,15.4
2018-12-31T02:35:36.063Z,12.4
2018-12-31T02:36:36.007Z,12.4
2018-12-31T02:37:35.992Z,18.3
2018-12-31T02:38:36.045Z,15.4
2018-12-31T02:39:36.107Z,12.4
2018-12-31T02:40:35.999Z,12.4
2018-12-31T02:41:36.032Z,9.5
2018-12-31T02:42:36.050Z,12.4
2018-12-31T02:43:48.990Z,15.4
2018-12-31T02:44:39.502Z,15.4
2018-12-31T02:45:36.237Z,12.4
2018-12-31T02:46:35.993Z,15.4
2018-12-31T02:47:38.346Z,21.3
2018-12-31T02:48:35.994Z,18.3
2018-12-31T02:49:36.031Z,18.3
2018-12-31T02:50:36.098Z,15.4
2018-12-31T02:51:35.988Z,18.3
2018-12-31T02:52:36.052Z,18.3
2018-12-31T02:53:36.006Z,12.4
2018-12-31T02:54:36.066Z,12.4
2018-12-31T02:55:36.012Z,15.4
2018-12-31T02:56:48.074Z,18.3
2018-12-31T02:57:35.992Z,18.3
2018-12-31T02:58:36.001Z,15.4
2018-12-31T02:59:36.742Z,24.3
2018-12-31T03:00:36.021Z,15.4
2018-12-31T03:01:36.011Z,18.3
2018-12-31T03:02:35.983Z,24.3
2018-12-31T03:03:36.022Z,21.3
2018-12-31T03:04:36.030Z,21.3
2018-12-31T03:05:37.978Z,21.3
2018-12-31T03:06:36.056Z,21.3
2018-12-31T03:07:36.015Z,21.3
2018-12-31T03:08:36.017Z,21.3
2018-12-31T03:09:35.996Z,18.3
2018-12-31T03:10:35.994Z,24.3
2018-12-31T03:11:36.078Z,21.3
2018-12-31T03:12:36.054Z,18.3
2018-12-31T03:13:35.992Z,18.3
2018-12-31T03:14:36.058Z,18.3
2018-12-31T03:15:35.991Z,15.4
2018-12-31T03:16:35.989Z,12.4
2018-12-31T03:17:36.073Z,9.5
2018-12-31T03:18:36.005Z,9.5
2018-12-31T03:19:36.016Z,9.5
2018-12-31T03:20:36.081Z,6.6
2018-12-31T03:21:35.979Z,9.5
2018-12-31T03:22:36.028Z,6.6
2018-12-31T03:23:36.008Z,9.5
2018-12-31T03:24:35.974Z,9.5
2018-12-31T03:25:36.099Z,9.5
2018-12-31T03:26:36.001Z,9.5
2018-12-31T03:27:35.981Z,9.5
2018-12-31T03:28:36.001Z,9.5
2018-12-31T03:29:35.998Z,9.5
2018-12-31T03:30:36.066Z,12.4
2018-12-31T03:31:35.968Z,9.5
2018-12-31T03:32:36.009Z,12.4
2018-12-31T03:33:36.007Z,12.4
2018-12-31T03:34:36.055Z,12.4
2018-12-31T03:35:35.988Z,12.4
2018-12-31T03:36:35.987Z,15.4
2018-12-31T03:37:36.059Z,15.4
2018-12-31T03:38:35.997Z,18.3
2018-12-31T03:39:36.059Z,12.4
2018-12-31T03:40:35.990Z,18.3
2018-12-31T03:41:36.066Z,9.5
2018-12-31T03:42:35.941Z,6.6
2018-12-31T03:43:35.998Z,15.4
2018-12-31T03:44:45.932Z,9.5
2018-12-31T03:45:35.967Z,12.4
2018-12-31T03:46:36.020Z,9.5
2018-12-31T03:47:35.985Z,15.4
2018-12-31T03:48:35.930Z,12.4
2018-12-31T03:49:35.988Z,12.4
2018-12-31T03:50:35.992Z,9.5
2018-12-31T03:51:35.990Z,15.4
2018-12-31T03:52:36.078Z,12.4
2018-12-31T03:53:35.936Z,9.5
2018-12-31T03:54:35.992Z,15.4
2018-12-31T03:55:36.063Z,9.5
2018-12-31T03:56:35.976Z,6.6
2018-12-31T03:57:36.071Z,6.6
2018-12-31T03:58:35.966Z,15.4
2018-12-31T03:59:35.975Z,9.5
2018-12-31T04:00:35.979Z,21.3
2018-12-31T04:01:36.055Z,12.4
2018-12-31T04:02:36.031Z,9.5
2018-12-31T04:03:36.057Z,12.4
2018-12-31T04:04:35.981Z,3.9
2018-12-31T04:05:35.985Z,12.4
2018-12-31T04:06:35.993Z,12.4
2018-12-31T04:07:35.986Z,12.4
2018-12-31T04:08:36.051Z,15.4
2018-12-31T04:09:36.423Z,12.4
2018-12-31T04:10:35.970Z,18.3
2018-12-31T04:11:35.990Z,9.5
2018-12-31T04:12:35.970Z,12.4
2018-12-31T04:13:36.064Z,18.3
2018-12-31T04:14:35.969Z,15.4
2018-12-31T04:15:36.006Z,15.4
2018-12-31T04:16:36.093Z,12.4
2018-12-31T04:17:38.326Z,6.6
2018-12-31T04:18:35.980Z,18.3
2018-12-31T04:19:36.046Z,12.4
2018-12-31T04:20:36.036Z,15.4
2018-12-31T04:21:35.961Z,15.4
2018-12-31T04:22:35.972Z,9.5
2018-12-31T04:23:35.958Z,9.5
2018-12-31T04:24:35.968Z,15.4
2018-12-31T04:25:36.019Z,12.4
2018-12-31T04:26:35.959Z,9.5
2018-12-31T04:27:35.933Z,6.6
2018-12-31T04:28:36.041Z,9.5
2018-12-31T04:29:36.007Z,15.4
2018-12-31T04:30:36.042Z,12.4
2018-12-31T04:31:35.958Z,9.5
2018-12-31T04:32:35.995Z,9.5
2018-12-31T04:33:35.946Z,12.4
2018-12-31T04:34:36.001Z,12.4
2018-12-31T04:35:36.031Z,3.9
2018-12-31T04:36:35.966Z,15.4
2018-12-31T04:37:35.935Z,21.3
2018-12-31T04:38:36.046Z,9.5
2018-12-31T04:39:35.971Z,9.5
2018-12-31T04:40:36.025Z,6.6
2018-12-31T04:41:35.959Z,12.4
2018-12-31T04:42:35.952Z,12.4
2018-12-31T04:43:35.970Z,12.4
2018-12-31T04:44:35.993Z,9.5
2018-12-31T04:45:35.994Z,12.4
2018-12-31T04:46:35.949Z,9.5
2018-12-31T04:47:36.058Z,12.4
2018-12-31T04:48:35.944Z,9.5
2018-12-31T04:49:35.944Z,12.4
2018-12-31T04:50:35.948Z,12.4
2018-12-31T04:51:36.001Z,6.6
2018-12-31T04:52:36.018Z,9.5
2018-12-31T04:53:45.824Z,6.6
2018-12-31T04:54:35.946Z,9.5
2018-12-31T04:55:43.952Z,3.9
2018-12-31T04:56:35.956Z,9.5
2018-12-31T04:57:36.041Z,6.6
2018-12-31T04:58:35.999Z,9.5
2018-12-31T04:59:35.935Z,12.4
2018-12-31T05:00:36.012Z,9.5
2018-12-31T05:01:35.949Z,9.5
2018-12-31T05:02:35.964Z,9.5
2018-12-31T05:03:36.029Z,6.6
2018-12-31T05:04:35.941Z,6.6
2018-12-31T05:05:35.982Z,12.4
2018-12-31T05:06:36.034Z,9.5
2018-12-31T05:07:36.026Z,9.5
2018-12-31T05:08:36.004Z,9.5
2018-12-31T05:09:35.970Z,12.4
2018-12-31T05:10:35.915Z,6.6
2018-12-31T05:11:35.940Z,9.5
2018-12-31T05:12:35.950Z,9.5
2018-12-31T05:13:36.023Z,9.5
2018-12-31T05:14:36.011Z,12.4
2018-12-31T05:15:35.905Z,12.4
2018-12-31T05:16:35.967Z,12.4
2018-12-31T05:17:35.950Z,9.5
2018-12-31T05:18:35.934Z,9.5
2018-12-31T05:19:36.015Z,9.5
2018-12-31T05:20:35.986Z,9.5
2018-12-31T05:21:35.926Z,9.5
2018-12-31T05:22:35.940Z,9.5
2018-12-31T05:23:35.940Z,12.4
2018-12-31T05:24:35.926Z,15.4
2018-12-31T05:25:36.020Z,9.5
2018-12-31T05:26:35.916Z,15.4
2018-12-31T05:27:35.944Z,12.4
2018-12-31T05:28:35.950Z,15.4
2018-12-31T05:29:35.944Z,15.4
2018-12-31T05:30:36.004Z,12.4
2018-12-31T05:31:35.922Z,9.5
2018-12-31T05:32:35.932Z,12.4
2018-12-31T05:33:35.944Z,12.4
2018-12-31T05:34:35.937Z,9.5
2018-12-31T05:35:36.031Z,3.9
2018-12-31T05:36:35.942Z,6.6
2018-12-31T05:37:35.999Z,12.4
2018-12-31T05:38:35.931Z,12.4
2018-12-31T05:39:35.929Z,12.4
2018-12-31T05:40:35.945Z,12.4
2018-12-31T05:41:35.990Z,9.5
2018-12-31T05:42:35.911Z,6.6
2018-12-31T05:43:35.993Z,3.9
2018-12-31T05:44:35.925Z,12.4
2018-12-31T05:45:35.928Z,6.6
2018-12-31T05:46:35.947Z,12.4
2018-12-31T05:47:36.003Z,6.6
2018-12-31T05:48:35.939Z,3.9
2018-12-31T05:49:35.956Z,12.4
2018-12-31T05:50:35.991Z,6.6
2018-12-31T05:51:35.935Z,6.6
2018-12-31T05:52:35.991Z,12.4
2018-12-31T05:53:35.888Z,12.4
2018-12-31T05:54:35.875Z,12.4
2018-12-31T05:55:35.985Z,6.6
2018-12-31T05:56:35.974Z,9.5
2018-12-31T05:57:35.943Z,6.6
2018-12-31T05:58:35.941Z,9.5
2018-12-31T05:59:35.923Z,6.6
2018-12-31T06:00:36.028Z,3.9
2018-12-31T06:01:35.925Z,6.6
2018-12-31T06:02:35.915Z,12.4
2018-12-31T06:03:35.991Z,9.5
2018-12-31T06:04:35.896Z,9.5
2018-12-31T06:05:36.003Z,12.4
2018-12-31T06:06:35.930Z,9.5
2018-12-31T06:07:35.955Z,12.4
2018-12-31T06:08:35.927Z,9.5
2018-12-31T06:09:35.913Z,9.5
2018-12-31T06:10:35.971Z,9.5
2018-12-31T06:11:35.910Z,6.6
2018-12-31T06:12:35.914Z,3.9
2018-12-31T06:13:35.908Z,3.9
2018-12-31T06:14:35.945Z,3.9
2018-12-31T06:15:35.992Z,6.6
2018-12-31T06:16:35.906Z,9.5
2018-12-31T06:17:35.906Z,9.5
2018-12-31T06:18:35.942Z,6.6
2018-12-31T06:19:35.917Z,6.6
2018-12-31T06:20:35.964Z,3.9
2018-12-31T06:21:35.880Z,1.8
2018-12-31T06:22:35.898Z,1.8
2018-12-31T06:23:35.924Z,42.3
2018-12-31T06:24:35.939Z,9.5
2018-12-31T06:25:35.892Z,15.4
2018-12-31T06:26:35.967Z,12.4
2018-12-31T06:27:35.926Z,9.5
2018-12-31T06:28:35.921Z,9.5
2018-12-31T06:29:35.971Z,3.9
2018-12-31T06:30:35.910Z,6.6
2018-12-31T06:31:35.896Z,12.4
2018-12-31T06:32:35.889Z,3.9
2018-12-31T06:33:35.973Z,9.5
2018-12-31T06:34:35.919Z,9.5
2018-12-31T06:35:35.952Z,15.4
2018-12-31T06:36:35.932Z,12.4
2018-12-31T06:37:35.881Z,3.9
2018-12-31T06:38:35.958Z,9.5
2018-12-31T06:39:35.890Z,12.4
2018-12-31T06:40:35.954Z,6.6
2018-12-31T06:41:35.909Z,12.4
2018-12-31T06:42:35.861Z,12.4
2018-12-31T06:43:35.937Z,3.9
2018-12-31T06:44:35.901Z,6.6
2018-12-31T06:45:35.954Z,9.5
2018-12-31T06:46:35.906Z,9.5
2018-12-31T06:47:35.914Z,9.5
2018-12-31T06:48:35.896Z,3.9
2018-12-31T06:49:35.988Z,6.6
2018-12-31T06:50:35.979Z,3.9
2018-12-31T06:51:35.908Z,3.9
2018-12-31T06:52:35.909Z,3.9
2018-12-31T06:53:35.939Z,3.9
2018-12-31T06:54:35.922Z,6.6
2018-12-31T06:55:35.957Z,9.5
2018-12-31T06:56:35.914Z,6.6
2018-12-31T06:57:35.953Z,3.9
2018-12-31T06:58:35.889Z,1.8
2018-12-31T06:59:35.854Z,12.4
2018-12-31T07:00:35.994Z,9.5
2018-12-31T07:01:35.994Z,6.6
2018-12-31T07:02:35.876Z,9.5
2018-12-31T07:03:35.899Z,12.4
2018-12-31T07:04:35.925Z,12.4
2018-12-31T07:05:35.899Z,9.5
2018-12-31T07:06:35.898Z,3.9
2018-12-31T07:07:35.908Z,9.5
2018-12-31T07:08:35.909Z,12.4
2018-12-31T07:09:35.935Z,12.4
2018-12-31T07:10:35.924Z,15.4
2018-12-31T07:11:35.970Z,12.4
2018-12-31T07:12:35.973Z,3.9
2018-12-31T07:13:35.894Z,12.4
2018-12-31T07:14:35.950Z,15.4
2018-12-31T07:15:35.922Z,6.6
2018-12-31T07:16:35.917Z,15.4
2018-12-31T07:17:35.887Z,15.4
2018-12-31T07:18:35.892Z,12.4
2018-12-31T07:19:35.899Z,9.5
2018-12-31T07:20:35.958Z,6.6
2018-12-31T07:21:35.878Z,12.4
2018-12-31T07:22:35.876Z,9.5
2018-12-31T07:23:35.890Z,9.5
2018-12-31T07:24:35.892Z,1.8
2018-12-31T07:25:35.946Z,6.6
2018-12-31T07:26:35.866Z,9.5
2018-12-31T07:27:36.000Z,6.6
2018-12-31T07:28:35.881Z,9.5
2018-12-31T07:29:35.892Z,9.5
2018-12-31T07:30:35.905Z,6.6
2018-12-31T07:31:35.922Z,6.6
2018-12-31T07:32:35.951Z,6.6
2018-12-31T07:33:35.887Z,3.9
2018-12-31T07:34:35.922Z,3.9
2018-12-31T07:35:35.946Z,9.5
2018-12-31T07:36:35.871Z,6.6
2018-12-31T07:37:35.930Z,12.4
2018-12-31T07:38:35.894Z,12.4
2018-12-31T07:39:35.906Z,6.6
2018-12-31T07:40:35.958Z,9.5
2018-12-31T07:41:35.863Z,9.5
2018-12-31T07:42:35.845Z,6.6
2018-12-31T07:43:35.860Z,9.5
2018-12-31T07:44:35.908Z,9.5
2018-12-31T07:45:35.958Z,9.5
2018-12-31T07:46:35.883Z,9.5
2018-12-31T07:47:35.877Z,9.5
2018-12-31T07:48:35.886Z,9.5
2018-12-31T07:49:35.948Z,9.5
2018-12-31T07:50:35.888Z,9.5
2018-12-31T07:51:35.927Z,12.4
2018-12-31T07:52:35.964Z,9.5
2018-12-31T07:53:35.927Z,12.4
2018-12-31T07:54:35.910Z,9.5
2018-12-31T07:55:35.909Z,9.5
2018-12-31T07:56:35.967Z,12.4
2018-12-31T07:57:35.821Z,15.4
2018-12-31T07:58:35.900Z,9.5
2018-12-31T07:59:35.868Z,15.4
2018-12-31T08:00:35.884Z,9.5
2018-12-31T08:01:35.923Z,15.4
2018-12-31T08:02:35.865Z,12.4
2018-12-31T08:03:35.846Z,9.5
2018-12-31T08:04:35.865Z,6.6
2018-12-31T08:05:35.883Z,9.5
2018-12-31T08:06:35.941Z,12.4
2018-12-31T08:07:35.878Z,6.6
2018-12-31T08:08:35.875Z,6.6
2018-12-31T08:09:35.936Z,12.4
2018-12-31T08:10:35.845Z,9.5
2018-12-31T08:11:35.953Z,12.4
2018-12-31T08:12:35.843Z,12.4
2018-12-31T08:13:35.894Z,15.4
2018-12-31T08:14:35.946Z,6.6
2018-12-31T08:15:35.922Z,9.5
2018-12-31T08:16:35.882Z,1.8
2018-12-31T08:17:35.852Z,3.9
2018-12-31T08:18:35.856Z,1.8
2018-12-31T08:19:35.951Z,6.6
2018-12-31T08:20:35.859Z,6.6
2018-12-31T08:21:35.852Z,6.6
2018-12-31T08:22:35.857Z,3.9
2018-12-31T08:23:35.859Z,9.5
2018-12-31T08:24:35.967Z,6.6
2018-12-31T08:25:35.872Z,9.5
2018-12-31T08:26:35.920Z,15.4
2018-12-31T08:27:35.846Z,9.5
2018-12-31T08:28:35.875Z,6.6
2018-12-31T08:29:35.882Z,9.5
2018-12-31T08:30:35.862Z,12.4
2018-12-31T08:31:35.907Z,9.5
2018-12-31T08:32:35.855Z,6.6
2018-12-31T08:33:35.855Z,6.6
2018-12-31T08:34:35.912Z,12.4
2018-12-31T08:35:35.929Z,9.5
2018-12-31T08:36:35.890Z,6.6
2018-12-31T08:37:35.842Z,9.5
2018-12-31T08:38:36.299Z,9.5
2018-12-31T08:39:35.851Z,9.5
2018-12-31T08:40:35.822Z,12.4
2018-12-31T08:41:36.070Z,12.4
2018-12-31T08:42:35.982Z,9.5
2018-12-31T08:43:35.851Z,9.5
2018-12-31T08:44:38.279Z,6.6
2018-12-31T08:45:35.819Z,9.5
2018-12-31T08:46:35.917Z,9.5
2018-12-31T08:47:35.938Z,6.6
2018-12-31T08:48:36.716Z,12.4
2018-12-31T08:49:35.970Z,9.5
2018-12-31T08:50:35.860Z,9.5
2018-12-31T08:51:36.406Z,3.9
2018-12-31T08:52:35.896Z,12.4
2018-12-31T08:53:35.848Z,9.5
2018-12-31T08:54:38.477Z,9.5
2018-12-31T08:55:35.870Z,9.5
2018-12-31T08:56:36.009Z,6.6
2018-12-31T08:57:37.609Z,6.6
2018-12-31T08:58:39.685Z,9.5
2018-12-31T08:59:35.879Z,3.9
2018-12-31T09:00:35.877Z,6.6
2018-12-31T09:01:35.831Z,12.4
2018-12-31T09:02:35.843Z,6.6
2018-12-31T09:03:35.935Z,9.5
2018-12-31T09:04:35.827Z,9.5
2018-12-31T09:05:35.874Z,9.5
2018-12-31T09:06:35.839Z,3.9
2018-12-31T09:07:35.856Z,9.5
2018-12-31T09:08:36.165Z,15.4
2018-12-31T09:09:35.865Z,9.5
2018-12-31T09:10:35.865Z,9.5
2018-12-31T09:11:35.863Z,6.6
2018-12-31T09:12:35.907Z,6.6
2018-12-31T09:13:35.823Z,9.5
2018-12-31T09:14:35.909Z,6.6
2018-12-31T09:15:35.822Z,15.4
2018-12-31T09:16:35.840Z,12.4
2018-12-31T09:17:35.838Z,15.4
2018-12-31T09:18:35.879Z,6.6
2018-12-31T09:19:35.922Z,12.4
2018-12-31T09:20:35.828Z,9.5
2018-12-31T09:21:35.820Z,6.6
2018-12-31T09:22:37.945Z,12.4
2018-12-31T09:23:35.945Z,15.4
2018-12-31T09:24:35.829Z,12.4
2018-12-31T09:25:35.830Z,9.5
2018-12-31T09:26:35.807Z,9.5
2018-12-31T09:27:35.839Z,9.5
2018-12-31T09:28:35.993Z,6.6
2018-12-31T09:29:35.869Z,6.6
2018-12-31T09:30:35.828Z,9.5
2018-12-31T09:31:35.798Z,6.6
2018-12-31T09:32:35.830Z,9.5
2018-12-31T09:33:35.904Z,15.4
2018-12-31T09:34:35.826Z,12.4
2018-12-31T09:35:35.841Z,9.5
2018-12-31T09:36:36.626Z,9.5
2018-12-31T09:37:45.719Z,1.8
2018-12-31T09:38:35.839Z,6.6
2018-12-31T09:39:35.874Z,3.9
2018-12-31T09:40:35.948Z,6.6
2018-12-31T09:41:35.897Z,6.6
2018-12-31T09:42:35.805Z,3.9
2018-12-31T09:43:35.847Z,6.6
2018-12-31T09:44:35.838Z,0
2018-12-31T09:45:35.908Z,3.9
2018-12-31T09:46:35.841Z,6.6
2018-12-31T09:47:35.820Z,1.8
2018-12-31T09:48:36.453Z,3.9
2018-12-31T09:49:35.913Z,3.9
2018-12-31T09:50:35.839Z,6.6
2018-12-31T09:51:35.845Z,12.4
2018-12-31T09:52:35.858Z,3.9
2018-12-31T09:53:35.918Z,9.5
2018-12-31T09:54:35.826Z,6.6
2018-12-31T09:55:35.834Z,1.8
2018-12-31T09:56:35.872Z,12.4
2018-12-31T09:57:35.897Z,6.6
2018-12-31T09:58:37.617Z,3.9
2018-12-31T09:59:35.796Z,9.5
2018-12-31T10:00:35.884Z,9.5
2018-12-31T10:01:35.896Z,6.6
2018-12-31T10:02:36.000Z,3.9
2018-12-31T10:03:35.898Z,3.9
2018-12-31T10:04:35.888Z,1.8
2018-12-31T10:05:35.926Z,1.8
2018-12-31T10:06:35.811Z,0
2018-12-31T10:07:39.983Z,3.9
2018-12-31T10:08:35.869Z,3.9
2018-12-31T10:09:38.092Z,6.6
2018-12-31T10:10:37.299Z,6.6
2018-12-31T10:11:35.884Z,3.9
2018-12-31T10:12:35.913Z,3.9
2018-12-31T10:13:35.792Z,9.5
2018-12-31T10:14:35.821Z,9.5
2018-12-31T10:15:35.780Z,3.9
2018-12-31T10:16:35.799Z,9.5
2018-12-31T10:17:36.928Z,6.6
2018-12-31T10:18:35.804Z,1.8
2018-12-31T10:19:35.821Z,9.5
2018-12-31T10:20:35.820Z,3.9
2018-12-31T10:21:42.262Z,9.5
2018-12-31T10:22:35.869Z,9.5
2018-12-31T10:23:35.848Z,12.4
2018-12-31T10:24:35.917Z,3.9
2018-12-31T10:25:35.851Z,6.6
2018-12-31T10:26:35.799Z,12.4
2018-12-31T10:27:35.817Z,12.4
2018-12-31T10:28:35.875Z,9.5
2018-12-31T10:29:37.587Z,15.4
2018-12-31T10:30:35.819Z,12.4
2018-12-31T10:31:36.056Z,12.4
2018-12-31T10:32:35.791Z,12.4
2018-12-31T10:33:35.864Z,6.6
2018-12-31T10:34:35.850Z,9.5
2018-12-31T10:35:35.817Z,12.4
2018-12-31T10:36:36.209Z,3.9
2018-12-31T10:37:35.800Z,6.6
2018-12-31T10:38:35.881Z,3.9
2018-12-31T10:39:35.800Z,6.6
2018-12-31T10:40:35.874Z,9.5
2018-12-31T10:41:35.842Z,12.4
2018-12-31T10:42:35.783Z,6.6
2018-12-31T10:43:35.820Z,12.4
2018-12-31T10:44:35.909Z,9.5
2018-12-31T10:45:35.816Z,6.6
2018-12-31T10:46:35.832Z,12.4
2018-12-31T10:47:35.911Z,6.6
2018-12-31T10:48:35.786Z,9.5
2018-12-31T10:49:35.822Z,9.5
2018-12-31T10:50:35.906Z,6.6
2018-12-31T10:51:35.807Z,6.6
2018-12-31T10:52:35.824Z,9.5
2018-12-31T10:53:35.851Z,15.4
2018-12-31T10:54:35.826Z,9.5
2018-12-31T10:55:35.897Z,9.5
2018-12-31T10:56:35.787Z,15.4
2018-12-31T10:57:35.842Z,12.4
2018-12-31T10:58:35.777Z,12.4
2018-12-31T10:59:35.864Z,9.5
2018-12-31T11:00:35.839Z,6.6
2018-12-31T11:01:35.848Z,15.4
2018-12-31T11:02:35.788Z,12.4
2018-12-31T11:03:35.820Z,12.4
2018-12-31T11:04:35.844Z,18.3
2018-12-31T11:05:35.835Z,12.4
2018-12-31T11:06:35.814Z,15.4
2018-12-31T11:07:35.806Z,12.4
2018-12-31T11:08:35.891Z,18.3
2018-12-31T11:09:35.810Z,18.3
2018-12-31T11:10:35.796Z,15.4
2018-12-31T11:11:35.791Z,9.5
2018-12-31T11:12:35.810Z,18.3
2018-12-31T11:13:35.881Z,21.3
2018-12-31T11:14:35.842Z,12.4
2018-12-31T11:15:35.772Z,18.3
2018-12-31T11:16:35.805Z,15.4
2018-12-31T11:17:35.821Z,15.4
2018-12-31T11:18:35.852Z,9.5
2018-12-31T11:19:35.818Z,21.3
2018-12-31T11:20:35.806Z,24.3
2018-12-31T11:21:35.777Z,24.3
2018-12-31T11:22:35.804Z,18.3
2018-12-31T11:23:35.882Z,3.9
2018-12-31T11:24:35.819Z,12.4
2018-12-31T11:25:37.609Z,12.4
2018-12-31T11:26:35.894Z,9.5
2018-12-31T11:27:35.801Z,15.4
2018-12-31T11:28:35.814Z,18.3
2018-12-31T11:29:35.804Z,27.3
2018-12-31T11:30:35.877Z,27.3
2018-12-31T11:31:35.766Z,30.3
2018-12-31T11:32:35.795Z,30.3
2018-12-31T11:33:35.815Z,27.3
2018-12-31T11:34:35.794Z,30.3
2018-12-31T11:35:35.857Z,30.3
2018-12-31T11:36:35.847Z,33.3
2018-12-31T11:37:36.243Z,30.3
2018-12-31T11:38:35.831Z,30.3
2018-12-31T11:39:35.780Z,36.3
2018-12-31T11:40:35.843Z,30.3
2018-12-31T11:41:35.800Z,39.3
2018-12-31T11:42:35.817Z,42.3
2018-12-31T11:43:35.907Z,36.3
2018-12-31T11:44:35.795Z,36.3
2018-12-31T11:45:35.835Z,30.3
2018-12-31T11:46:35.812Z,39.3
2018-12-31T11:47:35.784Z,27.3
2018-12-31T11:48:35.840Z,36.3
2018-12-31T11:49:35.788Z,36.3
2018-12-31T11:50:35.800Z,42.3
2018-12-31T11:51:35.804Z,36.3
2018-12-31T11:52:35.778Z,27.3
2018-12-31T11:53:35.819Z,33.3
2018-12-31T11:54:35.812Z,33.3
2018-12-31T11:55:35.795Z,33.3
2018-12-31T11:56:35.772Z,33.3
2018-12-31T11:57:35.775Z,30.3
2018-12-31T11:58:35.818Z,30.3
2018-12-31T11:59:35.750Z,30.3
2018-12-31T12:00:35.813Z,27.3
2018-12-31T12:01:35.857Z,33.3
2018-12-31T12:02:35.761Z,30.3
2018-12-31T12:03:35.785Z,33.3
2018-12-31T12:04:35.766Z,36.3
2018-12-31T12:05:35.791Z,27.3
2018-12-31T12:06:35.832Z,30.3
2018-12-31T12:07:35.827Z,33.3
2018-12-31T12:08:35.799Z,30.3
2018-12-31T12:09:45.652Z,33.3
2018-12-31T12:10:35.802Z,36.3
2018-12-31T12:11:35.795Z,33.3
2018-12-31T12:12:35.811Z,42.3
2018-12-31T12:13:35.800Z,36.3
2018-12-31T12:14:35.810Z,30.3
2018-12-31T12:15:35.779Z,36.3
2018-12-31T12:16:35.775Z,42.3
2018-12-31T12:17:35.798Z,33.3
2018-12-31T12:18:35.858Z,39.3
2018-12-31T12:19:35.771Z,39.3
2018-12-31T12:20:35.782Z,42.3
2018-12-31T12:21:35.787Z,39.3
2018-12-31T12:22:35.812Z,36.3
2018-12-31T12:23:35.800Z,33.3
2018-12-31T12:24:36.160Z,30.3
2018-12-31T12:25:35.855Z,33.3
2018-12-31T12:26:35.805Z,33.3
2018-12-31T12:27:35.739Z,36.3
2018-12-31T12:28:35.851Z,33.3
2018-12-31T12:29:35.780Z,36.3
2018-12-31T12:30:35.829Z,33.3
2018-12-31T12:31:35.750Z,42.3
2018-12-31T12:32:35.851Z,36.3
2018-12-31T12:33:36.115Z,21.3
2018-12-31T12:34:35.799Z,30.3
2018-12-31T12:35:35.769Z,30.3
2018-12-31T12:36:35.765Z,33.3
2018-12-31T12:37:35.787Z,36.3
2018-12-31T12:38:35.787Z,30.3
2018-12-31T12:39:35.834Z,39.3
2018-12-31T12:40:35.773Z,30.3
2018-12-31T12:41:35.778Z,33.3
2018-12-31T12:42:35.973Z,30.3
2018-12-31T12:43:35.798Z,39.3
2018-12-31T12:44:35.841Z,30.3
2018-12-31T12:45:35.767Z,39.3
2018-12-31T12:46:35.787Z,42.3
2018-12-31T12:47:35.758Z,39.3
2018-12-31T12:48:35.752Z,39.3
2018-12-31T12:49:35.878Z,36.3
2018-12-31T12:50:35.805Z,39.3
2018-12-31T12:51:35.890Z,39.3
2018-12-31T12:52:35.845Z,30.3
2018-12-31T12:53:35.738Z,33.3
2018-12-31T12:54:35.788Z,27.3
2018-12-31T12:55:35.790Z,33.3
2018-12-31T12:56:35.836Z,36.3
2018-12-31T12:57:35.762Z,36.3
2018-12-31T12:58:37.634Z,42.3
2018-12-31T12:59:35.772Z,39.3
2018-12-31T13:00:35.893Z,36.3
2018-12-31T13:01:35.760Z,33.3
2018-12-31T13:02:35.799Z,36.3
2018-12-31T13:03:35.798Z,36.3
2018-12-31T13:04:35.752Z,42.3
2018-12-31T13:05:35.994Z,33.3
2018-12-31T13:06:35.835Z,27.3
2018-12-31T13:07:35.846Z,30.3
2018-12-31T13:08:36.066Z,36.3
2018-12-31T13:09:35.745Z,33.3
2018-12-31T13:10:35.765Z,33.3
2018-12-31T13:11:38.437Z,30.3
2018-12-31T13:12:35.797Z,33.3
2018-12-31T13:13:35.847Z,30.3
2018-12-31T13:14:36.205Z,30.3
2018-12-31T13:15:35.840Z,27.3
2018-12-31T13:16:35.748Z,27.3
2018-12-31T13:17:36.612Z,36.3
2018-12-31T13:18:35.768Z,30.3
2018-12-31T13:19:35.779Z,30.3
2018-12-31T13:20:38.631Z,30.3
2018-12-31T13:21:36.079Z,36.3
2018-12-31T13:22:35.816Z,33.3
2018-12-31T13:23:40.657Z,24.3
2018-12-31T13:24:39.642Z,30.3
2018-12-31T13:25:40.319Z,24.3
2018-12-31T13:26:45.505Z,30.3
2018-12-31T13:27:39.541Z,30.3
2018-12-31T13:28:37.725Z,27.3
2018-12-31T13:29:38.003Z,24.3
2018-12-31T13:30:35.835Z,33.3
2018-12-31T13:31:35.721Z,42.3